createdAt,value
2018-10-17T00:00:22.914Z,13.80
2018-10-17T00:03:21.089Z,13.70
2018-10-17T00:05:53.642Z,13.80
2018-10-17T00:08:23.463Z,13.80
2018-10-17T00:10:53.249Z,13.90
2018-10-17T00:13:22.356Z,13.90
2018-10-17T00:15:51.717Z,13.90
2018-10-17T00:18:20.842Z,13.90
2018-10-17T00:20:51.054Z,13.90
2018-10-17T00:23:20.550Z,13.80
2018-10-17T00:25:52.177Z,13.70
2018-10-17T00:28:21.535Z,13.60
2018-10-17T00:30:51.143Z,13.60
2018-10-17T00:33:28.294Z,13.50
2018-10-17T00:35:58.492Z,13.50
2018-10-17T00:38:28.092Z,13.50
2018-10-17T00:40:57.767Z,13.50
2018-10-17T00:43:57.034Z,13.40
2018-10-17T00:46:32.213Z,13.40
2018-10-17T00:49:07.280Z,13.40
2018-10-17T00:54:13.325Z,13.40
2018-10-17T00:56:42.767Z,13.40
2018-10-17T00:59:13.487Z,13.50
2018-10-17T01:01:42.557Z,13.60
2018-10-17T01:04:12.125Z,13.50
2018-10-17T01:06:41.422Z,13.50
2018-10-17T01:09:12.827Z,13.60
2018-10-17T01:11:42.314Z,13.60
2018-10-17T01:14:35.778Z,13.60
2018-10-17T01:17:43.240Z,13.60
2018-10-17T01:20:12.758Z,13.50
2018-10-17T01:25:52.042Z,13.50
2018-10-17T01:28:21.961Z,13.60
2018-10-17T01:30:51.628Z,13.60
2018-10-17T01:33:20.759Z,13.60
2018-10-17T01:35:50.807Z,13.60
2018-10-17T01:38:19.949Z,13.60
2018-10-17T01:40:49.037Z,13.50
2018-10-17T01:43:18.636Z,13.60
2018-10-17T01:45:48.178Z,13.60
2018-10-17T01:48:17.547Z,13.60
2018-10-17T01:52:33.017Z,13.70
2018-10-17T01:55:03.095Z,13.60
2018-10-17T01:57:32.580Z,13.50
2018-10-17T02:00:01.815Z,13.50
2018-10-17T02:02:31.317Z,13.50
2018-10-17T02:05:00.564Z,13.60
2018-10-17T02:07:29.753Z,13.50
2018-10-17T02:09:58.901Z,13.50
2018-10-17T02:12:43.279Z,13.50
2018-10-17T02:15:13.153Z,13.50
2018-10-17T02:17:43.883Z,13.40
2018-10-17T02:23:24.782Z,13.40
2018-10-17T02:25:53.834Z,13.30
2018-10-17T02:28:22.944Z,13.30
2018-10-17T02:30:52.350Z,13.30
2018-10-17T02:33:21.501Z,13.20
2018-10-17T02:35:50.963Z,13.20
2018-10-17T02:38:20.155Z,13.20
2018-10-17T02:40:49.509Z,13.20
2018-10-17T02:43:18.759Z,13.20
2018-10-17T02:45:48.243Z,13.20
2018-10-17T02:48:17.274Z,13.20
2018-10-17T02:50:47.290Z,13.10
2018-10-17T02:53:55.403Z,13.10
2018-10-17T02:56:27.831Z,13.10
2018-10-17T02:59:05.125Z,13.10
2018-10-17T03:01:34.410Z,13.00
2018-10-17T03:04:03.801Z,13.20
2018-10-17T03:06:33.228Z,13.20
2018-10-17T03:09:03.390Z,13.20
2018-10-17T03:11:32.575Z,13.20
2018-10-17T03:14:21.838Z,13.30
2018-10-17T03:17:51.775Z,13.40
2018-10-17T03:20:56.570Z,13.30
2018-10-17T03:23:26.102Z,13.30
2018-10-17T03:26:43.546Z,13.40
2018-10-17T03:29:12.792Z,13.30
2018-10-17T03:31:42.339Z,13.30
2018-10-17T03:34:25.950Z,13.30
2018-10-17T03:36:55.451Z,13.30
2018-10-17T03:39:26.804Z,13.40
2018-10-17T03:41:56.452Z,13.40
2018-10-17T03:44:26.245Z,13.40
2018-10-17T03:46:56.762Z,13.50
2018-10-17T03:49:26.132Z,13.50
2018-10-17T03:51:55.153Z,13.50
2018-10-17T03:54:24.189Z,13.60
2018-10-17T03:56:53.286Z,13.60
2018-10-17T03:59:57.653Z,13.60
2018-10-17T04:02:26.803Z,13.60
2018-10-17T04:04:55.887Z,13.50
2018-10-17T04:07:25.971Z,13.60
2018-10-17T04:10:32.651Z,13.60
2018-10-17T04:13:03.571Z,13.60
2018-10-17T04:15:32.898Z,13.60
2018-10-17T04:18:33.034Z,13.60
2018-10-17T04:24:11.664Z,13.50
2018-10-17T04:26:40.732Z,13.50
2018-10-17T04:29:10.696Z,13.50
2018-10-17T04:32:04.198Z,13.50
2018-10-17T04:34:33.385Z,13.50
2018-10-17T04:37:02.486Z,13.40
2018-10-17T04:39:31.556Z,13.40
2018-10-17T04:42:00.622Z,13.30
2018-10-17T04:44:29.737Z,13.30
2018-10-17T04:46:58.929Z,13.30
2018-10-17T04:49:28.031Z,13.20
2018-10-17T04:51:57.160Z,13.30
2018-10-17T04:54:57.624Z,13.30
2018-10-17T04:57:26.854Z,13.30
2018-10-17T04:59:56.131Z,13.30
2018-10-17T05:02:25.633Z,13.20
2018-10-17T05:04:54.708Z,13.10
2018-10-17T05:07:47.794Z,13.10
2018-10-17T05:10:16.884Z,13.10
2018-10-17T05:12:46.011Z,13.10
2018-10-17T05:15:15.215Z,13.10
2018-10-17T05:17:44.298Z,13.20
2018-10-17T05:20:13.549Z,13.20
2018-10-17T05:25:38.169Z,13.40
2018-10-17T05:28:07.390Z,13.40
2018-10-17T05:30:36.871Z,13.40
2018-10-17T05:33:06.517Z,13.40
2018-10-17T05:35:35.703Z,13.40
2018-10-17T05:38:08.875Z,13.40
2018-10-17T05:40:38.163Z,13.40
2018-10-17T05:43:07.415Z,13.40
2018-10-17T05:45:36.590Z,13.30
2018-10-17T05:48:18.684Z,13.40
2018-10-17T05:51:16.915Z,13.40
2018-10-17T05:53:48.011Z,13.20
2018-10-17T05:56:18.899Z,13.20
2018-10-17T05:58:47.967Z,13.20
2018-10-17T06:01:22.946Z,13.20
2018-10-17T06:03:52.133Z,13.20
2018-10-17T06:09:02.317Z,13.20
2018-10-17T06:11:50.896Z,13.30
2018-10-17T06:14:20.412Z,13.40
2018-10-17T06:16:49.593Z,13.40
2018-10-17T06:19:18.627Z,13.40
2018-10-17T06:21:47.904Z,13.30
2018-10-17T06:24:17.556Z,13.40
2018-10-17T06:26:46.796Z,13.40
2018-10-17T06:29:15.952Z,13.40
2018-10-17T06:31:45.124Z,13.50
2018-10-17T06:34:14.259Z,13.50
2018-10-17T06:36:43.291Z,13.60
2018-10-17T06:39:35.423Z,13.70
2018-10-17T06:45:15.038Z,13.90
2018-10-17T06:47:44.148Z,13.90
2018-10-17T06:50:27.526Z,14.00
2018-10-17T06:52:56.675Z,14.10
2018-10-17T06:55:25.980Z,14.20
2018-10-17T07:11:41.063Z,14.40
2018-10-17T07:14:10.960Z,15.00
2018-10-17T07:16:40.132Z,15.10
2018-10-17T07:19:32.640Z,15.20
2018-10-17T07:25:32.093Z,15.40
2018-10-17T07:28:07.868Z,15.50
2018-10-17T07:30:51.730Z,15.80
2018-10-17T07:33:20.929Z,16.00
2018-10-17T07:35:53.649Z,16.20
2018-10-17T07:38:24.482Z,16.30
2018-10-17T07:43:49.418Z,16.70
2018-10-17T07:46:27.280Z,16.90
2018-10-17T07:51:57.946Z,17.30
2018-10-17T07:54:27.904Z,17.50
2018-10-17T08:02:51.163Z,17.70
2018-10-17T08:06:07.060Z,17.80
2018-10-17T08:12:38.559Z,18.20
2018-10-17T08:15:08.802Z,18.40
2018-10-17T08:17:38.719Z,18.50
2018-10-17T08:20:12.400Z,18.70
2018-10-17T08:22:44.936Z,18.80
2018-10-17T08:25:17.569Z,18.90
2018-10-17T08:28:01.631Z,19.00
2018-10-17T08:30:31.438Z,19.10
2018-10-17T08:33:05.757Z,19.20
2018-10-17T08:35:36.047Z,19.10
2018-10-17T08:38:05.381Z,19.00
2018-10-17T08:40:41.536Z,19.10
2018-10-17T08:43:33.154Z,19.10
2018-10-17T08:46:02.492Z,19.00
2018-10-17T08:48:33.687Z,18.90
2018-10-17T08:51:04.737Z,18.90
2018-10-17T09:03:18.777Z,18.50
2018-10-17T09:14:56.469Z,18.40
2018-10-17T09:23:28.745Z,18.50
2018-10-17T09:25:58.217Z,18.60
2018-10-17T09:28:27.537Z,18.60
2018-10-17T09:30:56.876Z,18.60
2018-10-17T09:33:26.339Z,18.70
2018-10-17T09:35:55.518Z,18.80
2018-10-17T09:38:25.151Z,18.90
2018-10-17T09:41:12.141Z,18.90
2018-10-17T09:43:41.472Z,18.80
2018-10-17T09:46:10.756Z,18.80
2018-10-17T09:48:40.045Z,18.90
2018-10-17T09:51:13.597Z,18.90
2018-10-17T09:53:42.843Z,18.90
2018-10-17T09:56:12.753Z,19.00
2018-10-17T09:58:41.963Z,19.00
2018-10-17T10:01:20.399Z,19.10
2018-10-17T10:06:49.552Z,19.20
2018-10-17T10:09:18.757Z,19.30
2018-10-17T10:11:48.055Z,19.30
2018-10-17T10:14:17.543Z,19.30
2018-10-17T10:16:50.044Z,19.40
2018-10-17T10:19:19.297Z,19.50
2018-10-17T10:21:49.251Z,19.60
2018-10-17T10:24:19.810Z,19.70
2018-10-17T10:26:49.091Z,19.70
2018-10-17T10:29:18.397Z,19.80
2018-10-17T10:31:47.941Z,19.90
2018-10-17T10:34:17.727Z,20.00
2018-10-17T10:36:46.949Z,20.00
2018-10-17T10:39:16.276Z,20.10
2018-10-17T10:41:45.369Z,20.00
2018-10-17T10:44:14.528Z,20.20
2018-10-17T10:46:43.902Z,20.30
2018-10-17T10:49:13.069Z,20.30
2018-10-17T10:51:42.320Z,20.40
2018-10-17T10:54:11.547Z,20.50
2018-10-17T10:56:40.586Z,20.60
2018-10-17T10:59:10.229Z,20.70
2018-10-17T11:01:39.301Z,20.70
2018-10-17T11:04:08.803Z,20.80
2018-10-17T11:06:53.381Z,20.80
2018-10-17T11:09:22.581Z,20.90
2018-10-17T11:11:51.802Z,21.00
2018-10-17T11:14:21.470Z,21.00
2018-10-17T11:16:50.532Z,21.10
2018-10-17T11:19:19.713Z,21.10
2018-10-17T11:21:48.940Z,21.10
2018-10-17T11:24:17.951Z,21.10
2018-10-17T11:26:47.209Z,21.10
2018-10-17T11:29:16.423Z,21.10
2018-10-17T11:31:45.577Z,21.10
2018-10-17T11:34:14.871Z,21.10
2018-10-17T11:36:43.946Z,21.20
2018-10-17T11:39:13.336Z,21.20
2018-10-17T11:41:42.450Z,21.10
2018-10-17T11:44:11.524Z,21.10
2018-10-17T11:46:40.675Z,21.10
2018-10-17T11:49:09.837Z,21.20
2018-10-17T11:51:39.178Z,21.10
2018-10-17T11:54:08.400Z,21.20
2018-10-17T11:56:37.628Z,21.30
2018-10-17T11:59:07.413Z,21.30
2018-10-17T12:01:37.036Z,21.40
2018-10-17T12:04:06.944Z,21.40
2018-10-17T12:06:36.291Z,21.40
2018-10-17T12:09:08.662Z,21.40
2018-10-17T12:11:39.459Z,21.40
2018-10-17T12:14:09.030Z,21.50
2018-10-17T12:16:38.746Z,21.50
2018-10-17T12:19:08.315Z,21.50
2018-10-17T12:21:37.860Z,21.60
2018-10-17T12:24:07.284Z,21.60
2018-10-17T12:26:37.264Z,21.60
2018-10-17T12:32:07.173Z,21.70
2018-10-17T12:34:46.923Z,21.70
2018-10-17T12:38:10.441Z,21.80
2018-10-17T12:41:05.646Z,21.80
2018-10-17T12:43:34.628Z,21.90
2018-10-17T12:46:04.133Z,21.90
2018-10-17T12:48:55.554Z,22.00
2018-10-17T12:51:24.919Z,22.00
2018-10-17T12:53:54.106Z,22.00
2018-10-17T12:56:23.364Z,22.10
2018-10-17T12:58:52.588Z,22.10
2018-10-17T13:01:21.587Z,22.20
2018-10-17T13:06:46.543Z,22.30
2018-10-17T13:09:37.690Z,22.30
2018-10-17T13:12:07.104Z,22.30
2018-10-17T13:14:36.151Z,22.30
2018-10-17T13:19:52.041Z,22.40
2018-10-17T13:22:21.300Z,22.40
2018-10-17T13:24:50.366Z,22.40
2018-10-17T13:27:19.822Z,22.40
2018-10-17T13:29:51.904Z,22.40
2018-10-17T13:32:34.022Z,22.40
2018-10-17T13:35:09.715Z,22.40
2018-10-17T13:37:45.458Z,22.40
2018-10-17T13:40:15.322Z,22.30
2018-10-17T13:42:51.343Z,22.20
2018-10-17T13:45:21.086Z,22.20
2018-10-17T13:47:50.483Z,22.10
2018-10-17T13:50:19.746Z,22.20
2018-10-17T13:52:48.792Z,22.20
2018-10-17T13:55:18.189Z,22.30
2018-10-17T13:57:47.306Z,22.20
2018-10-17T14:00:16.515Z,22.30
2018-10-17T14:02:45.780Z,22.20
2018-10-17T14:05:15.209Z,22.20
2018-10-17T14:07:44.433Z,22.30
2018-10-17T14:10:13.498Z,22.20
2018-10-17T14:12:42.815Z,22.20
2018-10-17T14:15:12.026Z,22.10
2018-10-17T14:17:40.961Z,22.20
2018-10-17T14:20:10.297Z,22.30
2018-10-17T14:22:39.339Z,22.30
2018-10-17T14:25:08.519Z,22.30
2018-10-17T14:27:37.725Z,22.30
2018-10-17T14:30:08.110Z,22.30
2018-10-17T14:32:37.614Z,22.30
2018-10-17T14:35:10.365Z,22.30
2018-10-17T14:37:39.803Z,22.20
2018-10-17T14:40:09.027Z,22.20
2018-10-17T14:42:38.553Z,22.10
2018-10-17T14:45:10.292Z,22.10
2018-10-17T14:47:39.849Z,22.00
2018-10-17T14:50:08.994Z,22.00
2018-10-17T14:53:01.177Z,21.90
2018-10-17T14:55:30.532Z,21.80
2018-10-17T14:58:00.588Z,21.70
2018-10-17T15:00:35.241Z,21.60
2018-10-17T15:03:05.848Z,21.50
2018-10-17T15:08:41.100Z,21.30
2018-10-17T15:11:23.590Z,21.20
2018-10-17T15:13:53.005Z,21.10
2018-10-17T15:16:22.226Z,21.10
2018-10-17T15:18:53.161Z,21.00
2018-10-17T15:21:22.839Z,20.90
2018-10-17T15:23:51.898Z,20.80
2018-10-17T15:26:20.964Z,20.90
2018-10-17T15:28:52.243Z,20.80
2018-10-17T15:31:22.393Z,20.80
2018-10-17T15:33:51.565Z,20.70
2018-10-17T15:36:21.883Z,20.70
2018-10-17T15:38:51.148Z,20.60
2018-10-17T15:41:20.293Z,20.50
2018-10-17T15:43:50.464Z,20.50
2018-10-17T15:46:20.125Z,20.40
2018-10-17T15:48:49.400Z,20.30
2018-10-17T15:51:18.757Z,20.20
2018-10-17T15:53:47.955Z,20.20
2018-10-17T15:56:17.400Z,20.10
2018-10-17T15:58:46.624Z,20.00
2018-10-17T16:01:15.872Z,20.00
2018-10-17T16:03:45.130Z,19.90
2018-10-17T16:06:14.695Z,19.80
2018-10-17T16:08:43.852Z,19.70
2018-10-17T16:11:13.012Z,19.70
2018-10-17T16:13:42.566Z,19.70
2018-10-17T16:16:11.750Z,19.50
2018-10-17T16:18:41.717Z,19.40
2018-10-17T16:21:10.979Z,19.30
2018-10-17T16:23:40.077Z,19.20
2018-10-17T16:26:09.440Z,19.10
2018-10-17T16:28:38.551Z,19.00
2018-10-17T16:31:07.984Z,18.90
2018-10-17T16:33:37.092Z,18.80
2018-10-17T16:36:06.807Z,18.80
2018-10-17T16:38:35.943Z,18.70
2018-10-17T16:41:05.451Z,18.70
2018-10-17T16:43:34.607Z,18.60
2018-10-17T16:46:03.791Z,18.40
2018-10-17T16:48:33.197Z,18.20
2018-10-17T16:51:10.229Z,18.30
2018-10-17T16:53:39.719Z,18.30
2018-10-17T16:56:09.303Z,18.10
2018-10-17T16:58:38.681Z,18.00
2018-10-17T17:01:08.881Z,17.90
2018-10-17T17:03:37.991Z,17.80
2018-10-17T17:06:07.164Z,17.80
2018-10-17T17:08:36.725Z,17.70
2018-10-17T17:14:41.161Z,17.60
2018-10-17T17:17:10.571Z,17.50
2018-10-17T17:19:39.714Z,17.50
2018-10-17T17:23:27.121Z,17.40
2018-10-17T17:26:35.349Z,17.40
2018-10-17T17:29:29.753Z,17.30
2018-10-17T17:37:49.005Z,17.40
2018-10-17T17:40:18.463Z,17.40
2018-10-17T17:42:47.731Z,17.40
2018-10-17T17:45:17.181Z,17.40
2018-10-17T17:47:46.905Z,17.50
2018-10-17T17:50:16.061Z,17.50
2018-10-17T17:52:48.717Z,17.40
2018-10-17T17:55:18.026Z,17.40
2018-10-17T17:57:47.387Z,17.40
2018-10-17T18:00:16.808Z,17.40
2018-10-17T18:02:46.221Z,17.40
2018-10-17T18:05:15.621Z,17.40
2018-10-17T18:07:45.249Z,17.30
2018-10-17T18:10:14.769Z,17.30
2018-10-17T18:12:44.033Z,17.30
2018-10-17T18:15:13.344Z,17.20
2018-10-17T18:17:42.530Z,17.20
2018-10-17T18:20:11.919Z,17.20
2018-10-17T18:23:10.144Z,17.10
2018-10-17T18:26:28.890Z,17.10
2018-10-17T18:28:58.034Z,17.10
2018-10-17T18:32:19.433Z,17.00
2018-10-17T18:38:07.766Z,16.90
2018-10-17T18:40:38.293Z,16.90
2018-10-17T18:43:14.369Z,16.80
2018-10-17T18:45:43.702Z,16.80
2018-10-17T18:48:12.867Z,16.70
2018-10-17T18:50:43.314Z,16.70
2018-10-17T19:13:19.426Z,16.40
2018-10-17T19:15:48.665Z,16.20
2018-10-17T19:18:18.045Z,16.20
2018-10-17T19:20:49.056Z,16.10
2018-10-17T19:23:18.487Z,16.10
2018-10-17T19:26:36.756Z,16.00
2018-10-17T19:32:14.041Z,16.00
2018-10-17T19:34:43.215Z,15.90
2018-10-17T19:37:49.321Z,15.90
2018-10-17T19:40:19.400Z,15.90
2018-10-17T19:42:51.003Z,15.70
2018-10-17T19:45:20.810Z,15.70
2018-10-17T19:47:50.207Z,15.70
2018-10-17T19:50:20.426Z,15.60
2018-10-17T19:52:49.785Z,15.60
2018-10-17T19:55:20.110Z,15.60
2018-10-17T19:58:18.235Z,15.50
2018-10-17T20:00:53.387Z,15.50
2018-10-17T20:03:25.360Z,15.50
2018-10-17T20:06:34.151Z,15.40
2018-10-17T20:09:04.955Z,15.40
2018-10-17T20:11:51.767Z,15.30
2018-10-17T20:14:21.097Z,15.20
2018-10-17T20:51:30.036Z,15.10
2018-10-17T20:54:02.832Z,14.50
2018-10-17T20:56:32.100Z,14.40
2018-10-17T20:59:01.482Z,14.40
2018-10-17T21:15:21.600Z,14.40
2018-10-17T21:17:50.742Z,14.20
2018-10-17T21:20:19.931Z,14.20
2018-10-17T21:22:49.063Z,14.20
2018-10-17T21:25:18.307Z,14.10
2018-10-17T21:28:05.698Z,14.10
2018-10-17T21:30:34.909Z,14.00
2018-10-17T21:33:05.425Z,14.00
2018-10-17T21:35:34.529Z,14.00
2018-10-17T21:38:03.824Z,13.90
2018-10-17T21:40:33.215Z,14.00
2018-10-17T21:43:02.574Z,14.00
2018-10-17T21:45:32.275Z,14.00
2018-10-17T21:48:09.105Z,14.00
2018-10-17T21:50:38.367Z,14.00
2018-10-17T21:53:07.833Z,14.00
2018-10-17T21:55:38.452Z,14.00
2018-10-17T21:58:39.231Z,14.00
2018-10-17T22:01:08.887Z,14.00
2018-10-17T22:03:38.352Z,14.00
2018-10-17T22:06:14.544Z,14.10
2018-10-17T22:08:43.994Z,14.10
2018-10-17T22:11:13.305Z,14.00
2018-10-17T22:13:42.581Z,14.00
2018-10-17T22:16:12.516Z,14.20
2018-10-17T22:18:41.805Z,14.20
2018-10-17T22:21:11.162Z,14.10
2018-10-17T22:23:40.471Z,14.00
2018-10-17T22:27:02.416Z,14.00
2018-10-17T22:29:31.806Z,14.00
2018-10-17T22:32:01.303Z,14.10
2018-10-17T22:34:30.675Z,14.00
2018-10-17T22:36:59.857Z,14.00
2018-10-17T22:39:29.145Z,14.10
2018-10-17T22:41:58.491Z,14.00
2018-10-17T22:44:30.891Z,14.00
2018-10-17T22:47:01.005Z,14.10
2018-10-17T22:49:30.258Z,14.10
2018-10-17T22:51:59.602Z,14.10
2018-10-17T22:54:29.819Z,14.10
2018-10-17T22:56:59.231Z,14.10
2018-10-17T22:59:28.541Z,14.20
2018-10-17T23:01:58.862Z,14.20
2018-10-17T23:04:28.238Z,14.30
2018-10-17T23:07:24.679Z,14.30
2018-10-17T23:09:54.076Z,14.30
2018-10-17T23:12:23.535Z,14.30
2018-10-17T23:14:53.052Z,14.40
2018-10-17T23:20:40.992Z,14.40
2018-10-17T23:23:10.307Z,14.40
2018-10-17T23:25:39.489Z,14.40
2018-10-17T23:28:15.521Z,14.40
2018-10-17T23:30:44.805Z,14.40
2018-10-17T23:33:13.941Z,14.40
2018-10-17T23:35:43.233Z,14.40
2018-10-17T23:38:12.578Z,14.50
2018-10-17T23:40:41.951Z,14.50
2018-10-17T23:43:26.889Z,14.50
2018-10-17T23:45:56.249Z,14.40
2018-10-17T23:48:57.402Z,14.40
2018-10-17T23:51:26.834Z,14.40
2018-10-17T23:53:56.368Z,14.50
2018-10-17T23:56:25.846Z,14.50
2018-10-17T23:58:56.974Z,14.50
